Terminal Aerodrome Forecast
Issued by NWS Grand Forks, ND

Home | Current Version | Previous Version | Graphics & Text | Print | Product List | Glossary On
Versions: 1 2 3 4 5 6 7 8 9 10 11 12
000
FTUS43 KFGF 152300
TAFGFK
TAF
KGFK 152338Z 1600/1624 14012KT P6SM BKN100
     FM160600 08015G24KT P6SM BKN080
     FM161800 04018G28KT P6SM OVC080=

USA.gov is the U.S. government's official web portal to all federal, state and local government web resources and services.